createdAt,value
2019-02-11T00:02:31.994Z,83.97
2019-02-11T00:05:03.841Z,83.89
2019-02-11T00:07:35.814Z,84.15
2019-02-11T00:10:07.671Z,83.70
2019-02-11T00:12:39.868Z,83.90
2019-02-11T00:15:11.725Z,84.97
2019-02-11T00:17:43.750Z,85.96
2019-02-11T00:20:15.449Z,88.25
2019-02-11T00:22:47.159Z,87.94
2019-02-11T00:25:19.191Z,88.91
2019-02-11T00:27:50.891Z,89.79
2019-02-11T00:30:22.672Z,89.85
2019-02-11T00:32:54.908Z,90.95
2019-02-11T00:35:26.673Z,91.58
2019-02-11T00:37:58.391Z,91.84
2019-02-11T00:40:30.173Z,91.64
2019-02-11T00:43:01.886Z,91.80
2019-02-11T00:45:33.865Z,91.44
2019-02-11T00:48:07.147Z,90.77
2019-02-11T00:50:38.952Z,90.60
2019-02-11T00:53:10.678Z,90.58
2019-02-11T00:55:42.456Z,89.06
2019-02-11T00:58:14.217Z,89.04
2019-02-11T01:00:46.255Z,89.01
2019-02-11T01:03:17.967Z,88.44
2019-02-11T01:05:49.887Z,88.71
2019-02-11T01:08:21.744Z,88.35
2019-02-11T01:10:53.766Z,87.70
2019-02-11T01:13:27.928Z,87.73
2019-02-11T01:15:58.907Z,87.31
2019-02-11T01:18:30.846Z,87.68
2019-02-11T01:21:02.546Z,87.01
2019-02-11T01:23:34.291Z,87.14
2019-02-11T01:26:06.400Z,87.92
2019-02-11T01:28:38.099Z,87.25
2019-02-11T01:31:10.076Z,87.20
2019-02-11T01:33:41.869Z,86.82
2019-02-11T01:36:13.978Z,86.39
2019-02-11T01:38:45.710Z,85.81
2019-02-11T01:41:17.418Z,85.83
2019-02-11T01:43:49.135Z,86.58
2019-02-11T01:46:20.919Z,86.98
2019-02-11T01:48:52.887Z,86.87
2019-02-11T01:51:24.594Z,85.78
2019-02-11T01:53:56.394Z,86.13
2019-02-11T01:56:28.107Z,86.63
2019-02-11T01:59:00.989Z,87.05
2019-02-11T02:01:32.785Z,87.98
2019-02-11T02:04:04.632Z,87.54
2019-02-11T02:06:36.681Z,87.30
2019-02-11T02:09:08.945Z,88.15
2019-02-11T02:11:40.644Z,87.77
2019-02-11T02:14:12.452Z,88.09
2019-02-11T02:16:44.284Z,88.74
2019-02-11T02:19:15.999Z,88.80
2019-02-11T02:21:47.792Z,88.93
2019-02-11T02:24:19.503Z,88.59
2019-02-11T02:26:51.442Z,89.95
2019-02-11T02:29:23.176Z,89.33
2019-02-11T02:31:54.879Z,88.97
2019-02-11T02:34:26.583Z,89.59
2019-02-11T02:36:58.458Z,89.31
2019-02-11T02:39:30.451Z,90.07
2019-02-11T02:42:02.165Z,90.70
2019-02-11T02:44:34.971Z,90.60
2019-02-11T02:47:06.682Z,89.93
2019-02-11T02:49:38.798Z,90.19
2019-02-11T02:52:10.525Z,90.33
2019-02-11T02:54:42.490Z,90.48
2019-02-11T02:57:14.287Z,90.92
2019-02-11T02:59:46.416Z,91.33
2019-02-11T03:02:18.126Z,90.50
2019-02-11T03:04:49.868Z,91.00
2019-02-11T03:07:21.668Z,90.88
2019-02-11T03:09:53.625Z,90.82
2019-02-11T03:12:25.427Z,91.33
2019-02-11T03:14:57.144Z,90.68
2019-02-11T03:17:28.861Z,91.17
2019-02-11T03:20:00.626Z,90.88
2019-02-11T03:22:38.122Z,91.70
2019-02-11T03:25:10.157Z,91.22
2019-02-11T03:27:41.903Z,90.94
2019-02-11T03:30:13.734Z,90.92
2019-02-11T03:32:45.692Z,90.75
2019-02-11T03:35:17.403Z,90.69
2019-02-11T03:37:49.126Z,91.20
2019-02-11T03:40:20.837Z,91.64
2019-02-11T03:42:52.657Z,91.23
2019-02-11T03:45:24.511Z,90.89
2019-02-11T03:47:56.291Z,91.29
2019-02-11T03:50:28.102Z,90.96
2019-02-11T03:53:00.004Z,91.36
2019-02-11T03:55:31.830Z,91.29
2019-02-11T03:58:03.595Z,91.56
2019-02-11T04:00:36.273Z,91.34
2019-02-11T04:03:08.163Z,91.17
2019-02-11T04:05:40.289Z,91.53
2019-02-11T04:08:12.528Z,92.09
2019-02-11T04:10:44.218Z,91.91
2019-02-11T04:13:15.923Z,92.21
2019-02-11T04:15:47.635Z,92.63
2019-02-11T04:18:19.427Z,92.59
2019-02-11T04:20:51.431Z,92.82
2019-02-11T04:23:23.239Z,92.85
2019-02-11T04:25:54.990Z,92.91
2019-02-11T04:28:26.916Z,92.77
2019-02-11T04:30:58.852Z,92.98
2019-02-11T04:33:30.564Z,93.61
2019-02-11T04:36:02.344Z,93.26
2019-02-11T04:38:34.078Z,93.68
2019-02-11T04:41:06.213Z,93.81
2019-02-11T04:43:38.036Z,93.64
2019-02-11T04:46:10.108Z,93.68
2019-02-11T04:48:41.890Z,93.67
2019-02-11T04:51:13.579Z,93.97
2019-02-11T04:53:45.288Z,93.58
2019-02-11T04:56:17.006Z,93.84
2019-02-11T04:58:48.701Z,93.74
2019-02-11T05:01:20.497Z,94.25
2019-02-11T05:03:53.968Z,93.99
2019-02-11T05:06:25.905Z,94.42
2019-02-11T05:08:57.635Z,94.42
2019-02-11T05:11:29.841Z,94.65
2019-02-11T05:14:01.801Z,94.14
2019-02-11T05:16:33.504Z,93.25
2019-02-11T05:19:05.237Z,93.29
2019-02-11T05:21:36.955Z,94.20
2019-02-11T05:24:09.934Z,93.81
2019-02-11T05:26:41.794Z,93.51
2019-02-11T05:29:13.494Z,93.56
2019-02-11T05:31:45.190Z,94.13
2019-02-11T05:34:17.143Z,93.93
2019-02-11T05:36:48.850Z,94.44
2019-02-11T05:39:20.634Z,94.36
2019-02-11T05:41:52.334Z,94.18
2019-02-11T05:44:24.034Z,94.20
2019-02-11T05:46:55.739Z,94.63
2019-02-11T05:49:27.701Z,95.46
2019-02-11T05:51:59.415Z,94.69
2019-02-11T05:54:31.144Z,94.31
2019-02-11T05:57:04.440Z,94.56
2019-02-11T05:59:37.968Z,95.05
2019-02-11T06:02:10.658Z,94.51
2019-02-11T06:04:42.391Z,94.89
2019-02-11T06:07:16.251Z,94.57
2019-02-11T06:10:35.454Z,94.71
2019-02-11T06:13:13.480Z,94.68
2019-02-11T06:15:47.105Z,94.54
2019-02-11T06:18:19.027Z,94.15
2019-02-11T06:20:59.956Z,94.20
2019-02-11T06:23:43.062Z,94.57
2019-02-11T06:26:23.849Z,94.26
2019-02-11T06:29:00.503Z,94.33
2019-02-11T06:31:32.881Z,94.66
2019-02-11T06:34:04.724Z,94.67
2019-02-11T06:36:36.497Z,94.58
2019-02-11T06:39:08.203Z,94.68
2019-02-11T06:41:40.154Z,94.71
2019-02-11T06:44:12.105Z,94.58
2019-02-11T06:46:43.796Z,95.14
2019-02-11T06:49:15.502Z,94.95
2019-02-11T06:51:47.270Z,95.15
2019-02-11T06:54:18.985Z,95.09
2019-02-11T06:56:50.711Z,95.31
2019-02-11T06:59:22.420Z,95.35
2019-02-11T07:01:54.119Z,95.18
2019-02-11T07:04:25.839Z,95.28
2019-02-11T07:06:57.545Z,95.14
2019-02-11T07:09:29.505Z,95.09
2019-02-11T07:12:01.445Z,94.83
2019-02-11T07:14:33.158Z,94.82
2019-02-11T07:17:04.849Z,94.63
2019-02-11T07:19:36.577Z,94.92
2019-02-11T07:22:09.483Z,94.58
2019-02-11T07:24:41.191Z,94.40
2019-02-11T07:27:13.434Z,94.25
2019-02-11T07:29:45.137Z,94.35
2019-02-11T07:32:16.848Z,94.38
2019-02-11T07:34:48.890Z,94.54
2019-02-11T07:37:20.591Z,94.63
2019-02-11T07:39:52.554Z,94.82
2019-02-11T07:42:52.308Z,94.88
2019-02-11T07:45:32.367Z,94.79
2019-02-11T07:48:04.071Z,94.55
2019-02-11T07:50:35.781Z,94.46
2019-02-11T07:53:07.490Z,94.60
2019-02-11T07:55:39.201Z,95.20
2019-02-11T07:58:11.058Z,94.58
2019-02-11T08:00:42.765Z,94.49
2019-02-11T08:03:14.510Z,94.37
2019-02-11T08:05:46.223Z,94.50
2019-02-11T08:08:18.079Z,94.56
2019-02-11T08:10:49.847Z,94.75
2019-02-11T08:13:21.630Z,94.82
2019-02-11T08:15:53.582Z,94.67
2019-02-11T08:18:25.548Z,94.71
2019-02-11T08:20:57.253Z,94.67
2019-02-11T08:23:29.209Z,94.88
2019-02-11T08:26:01.230Z,94.41
2019-02-11T08:28:33.012Z,94.51
2019-02-11T08:31:05.127Z,94.75
2019-02-11T08:33:37.804Z,94.61
2019-02-11T08:36:09.782Z,95.58
2019-02-11T08:38:41.479Z,94.91
2019-02-11T08:41:13.266Z,95.12
2019-02-11T08:43:52.385Z,95.42
2019-02-11T08:46:43.016Z,95.40
2019-02-11T08:49:09.430Z,95.24
2019-02-11T08:51:41.176Z,95.80
2019-02-11T08:54:12.896Z,95.06
2019-02-11T08:56:44.849Z,95.29
2019-02-11T08:59:16.615Z,94.65
2019-02-11T09:01:48.326Z,94.51
2019-02-11T09:04:20.357Z,94.76
2019-02-11T09:06:52.075Z,94.94
2019-02-11T09:09:23.806Z,94.03
2019-02-11T09:11:55.524Z,93.65
2019-02-11T09:14:27.520Z,93.83
2019-02-11T09:16:59.249Z,93.69
2019-02-11T09:19:31.077Z,93.33
2019-02-11T09:22:07.676Z,93.36
2019-02-11T09:24:36.766Z,93.15
2019-02-11T09:27:09.791Z,93.08
2019-02-11T09:29:41.498Z,93.04
2019-02-11T09:32:13.290Z,92.42
2019-02-11T09:34:45.239Z,92.30
2019-02-11T09:37:17.035Z,91.73
2019-02-11T09:39:48.749Z,92.17
2019-02-11T09:42:20.747Z,92.20
2019-02-11T09:44:52.465Z,92.08
2019-02-11T09:47:24.168Z,92.28
2019-02-11T09:50:21.124Z,91.73
2019-02-11T09:52:54.054Z,92.12
2019-02-11T09:55:28.546Z,91.70
2019-02-11T09:58:01.568Z,91.79
2019-02-11T10:00:33.407Z,91.53
2019-02-11T10:03:05.527Z,92.00
2019-02-11T10:05:37.319Z,91.95
2019-02-11T10:08:09.923Z,91.67
2019-02-11T10:10:41.714Z,91.29
2019-02-11T10:13:13.428Z,90.87
2019-02-11T10:15:45.533Z,91.83
2019-02-11T10:18:17.928Z,90.41
2019-02-11T10:21:15.019Z,90.83
2019-02-11T10:23:48.415Z,91.05
2019-02-11T10:26:20.278Z,89.89
2019-02-11T10:28:52.254Z,89.86
2019-02-11T10:31:23.938Z,89.80
2019-02-11T10:33:55.715Z,89.41
2019-02-11T10:36:27.497Z,89.47
2019-02-11T10:38:59.275Z,89.08
2019-02-11T10:41:31.057Z,89.45
2019-02-11T10:44:02.786Z,88.93
2019-02-11T10:46:34.568Z,89.18
2019-02-11T10:49:06.282Z,88.62
2019-02-11T10:51:38.050Z,89.23
2019-02-11T10:54:09.820Z,89.48
2019-02-11T10:56:41.849Z,89.05
2019-02-11T10:59:13.927Z,88.76
2019-02-11T11:01:45.793Z,88.48
2019-02-11T11:04:17.507Z,87.89
2019-02-11T11:06:49.594Z,88.06
2019-02-11T11:09:21.629Z,87.61
2019-02-11T11:11:53.363Z,88.66
2019-02-11T11:14:25.144Z,87.60
2019-02-11T11:16:57.079Z,87.82
2019-02-11T11:19:28.866Z,87.34
2019-02-11T11:22:00.575Z,87.85
2019-02-11T11:24:32.434Z,87.33
2019-02-11T11:27:04.135Z,86.81
2019-02-11T11:29:36.307Z,85.59
2019-02-11T11:32:08.327Z,84.11
2019-02-11T11:34:40.142Z,85.65
2019-02-11T11:37:13.394Z,84.72
2019-02-11T11:39:45.293Z,85.34
2019-02-11T11:42:17.067Z,85.17
2019-02-11T11:44:48.792Z,84.29
2019-02-11T11:47:20.476Z,84.13
2019-02-11T11:49:52.171Z,84.00
2019-02-11T11:52:23.944Z,82.55
2019-02-11T11:54:55.732Z,84.27
2019-02-11T11:57:27.925Z,82.81
2019-02-11T11:59:59.632Z,82.25
2019-02-11T12:02:31.728Z,81.68
2019-02-11T12:05:03.454Z,81.67
2019-02-11T12:07:35.233Z,82.73
2019-02-11T12:10:07.268Z,82.01
2019-02-11T12:12:39.245Z,81.34
2019-02-11T12:15:11.360Z,81.21
2019-02-11T12:17:43.636Z,81.54
2019-02-11T12:20:15.569Z,81.28
2019-02-11T12:22:47.392Z,81.18
2019-02-11T12:25:19.265Z,79.98
2019-02-11T12:27:51.209Z,80.24
2019-02-11T12:30:25.701Z,79.67
2019-02-11T12:32:57.443Z,80.13
2019-02-11T12:35:29.150Z,79.33
2019-02-11T12:38:00.859Z,77.75
2019-02-11T12:40:32.596Z,77.43
2019-02-11T12:43:04.379Z,78.44
2019-02-11T12:45:36.169Z,78.13
2019-02-11T12:48:07.956Z,77.31
2019-02-11T12:50:39.699Z,77.23
2019-02-11T12:53:11.699Z,76.18
2019-02-11T12:55:43.654Z,75.47
2019-02-11T12:58:15.365Z,76.85
2019-02-11T13:00:47.051Z,77.04
2019-02-11T13:03:18.750Z,77.11
2019-02-11T13:05:50.537Z,77.30
2019-02-11T13:08:22.401Z,77.56
2019-02-11T13:13:49.530Z,77.71
2019-02-11T13:16:21.894Z,78.50
2019-02-11T13:19:02.434Z,79.31
2019-02-11T13:21:34.484Z,79.11
2019-02-11T13:24:06.582Z,78.30
2019-02-11T13:26:41.221Z,77.72
2019-02-11T13:29:13.300Z,78.09
2019-02-11T13:31:52.397Z,77.16
2019-02-11T13:34:31.397Z,75.98
2019-02-11T13:37:03.189Z,75.43
2019-02-11T13:39:34.888Z,74.98
2019-02-11T13:42:07.007Z,75.33
2019-02-11T13:44:38.696Z,75.59
2019-02-11T13:47:10.503Z,75.73
2019-02-11T13:49:46.393Z,77.12
2019-02-11T13:52:15.878Z,76.81
2019-02-11T13:54:47.632Z,76.49
2019-02-11T13:57:19.362Z,76.06
2019-02-11T13:59:51.123Z,75.12
2019-02-11T14:02:22.974Z,75.57
2019-02-11T14:04:54.928Z,74.02
2019-02-11T14:07:26.727Z,74.04
2019-02-11T14:10:02.025Z,72.36
2019-02-11T14:12:31.947Z,71.66
2019-02-11T14:15:03.645Z,72.48
2019-02-11T14:17:35.780Z,72.70
2019-02-11T14:20:12.477Z,72.54
2019-02-11T14:22:44.259Z,73.34
2019-02-11T14:25:16.447Z,72.42
2019-02-11T14:27:48.223Z,73.60
2019-02-11T14:30:21.314Z,73.01
2019-02-11T14:32:53.688Z,73.41
2019-02-11T14:35:25.535Z,74.21
2019-02-11T14:38:01.579Z,74.10
2019-02-11T14:40:30.865Z,73.95
2019-02-11T14:43:02.650Z,74.09
2019-02-11T14:45:35.419Z,73.46
2019-02-11T14:48:25.745Z,73.05
2019-02-11T14:50:42.900Z,72.53
2019-02-11T14:53:14.691Z,72.04
2019-02-11T14:55:46.531Z,72.67
2019-02-11T14:58:18.256Z,72.49
2019-02-11T15:00:50.032Z,72.40
2019-02-11T15:03:21.752Z,72.47
2019-02-11T15:05:53.717Z,72.13
2019-02-11T15:08:25.503Z,71.72
2019-02-11T15:10:57.199Z,72.35
2019-02-11T15:13:28.920Z,72.41
2019-02-11T15:16:00.616Z,72.14
2019-02-11T15:18:34.293Z,71.52
2019-02-11T15:21:05.785Z,70.11
2019-02-11T15:23:37.497Z,70.08
2019-02-11T15:26:10.145Z,70.49
2019-02-11T15:28:41.827Z,71.36
2019-02-11T15:31:13.537Z,71.36
2019-02-11T15:33:46.462Z,71.41
2019-02-11T15:36:18.653Z,71.07
2019-02-11T15:38:50.344Z,72.51
2019-02-11T15:41:22.044Z,72.28
2019-02-11T15:43:53.785Z,73.17
2019-02-11T15:46:25.491Z,73.59
2019-02-11T15:48:57.196Z,73.75
2019-02-11T15:51:28.893Z,74.12
2019-02-11T15:54:25.262Z,74.34
2019-02-11T15:56:40.460Z,74.73
2019-02-11T15:59:12.192Z,75.38
2019-02-11T16:01:44.161Z,75.60
2019-02-11T16:04:15.877Z,75.77
2019-02-11T16:06:47.838Z,76.37
2019-02-11T16:09:19.536Z,77.14
2019-02-11T16:11:52.033Z,77.75
2019-02-11T16:14:23.886Z,78.23
2019-02-11T16:16:55.596Z,78.90
2019-02-11T16:19:27.288Z,78.75
2019-02-11T16:21:59.338Z,79.01
2019-02-11T16:24:31.043Z,79.04
2019-02-11T16:27:02.778Z,78.96
2019-02-11T16:29:34.509Z,79.33
2019-02-11T16:32:06.359Z,79.16
2019-02-11T16:34:38.082Z,79.52
2019-02-11T16:37:09.812Z,79.89
2019-02-11T16:39:41.977Z,80.02
2019-02-11T16:42:13.702Z,79.26
2019-02-11T16:44:45.401Z,79.20
2019-02-11T16:47:17.379Z,78.56
2019-02-11T16:49:49.105Z,78.74
2019-02-11T16:52:20.826Z,79.57
2019-02-11T16:54:52.525Z,78.72
2019-02-11T16:57:24.307Z,78.70
2019-02-11T16:59:56.325Z,78.18
2019-02-11T17:02:34.071Z,78.82
2019-02-11T17:05:08.246Z,78.82
2019-02-11T17:07:41.925Z,78.50
2019-02-11T17:10:13.962Z,79.17
2019-02-11T17:12:45.894Z,79.09
2019-02-11T17:15:18.239Z,79.20
2019-02-11T17:17:49.962Z,79.07
2019-02-11T17:20:21.742Z,79.90
2019-02-11T17:22:53.530Z,79.21
2019-02-11T17:25:26.155Z,79.46
2019-02-11T17:27:57.937Z,79.41
2019-02-11T17:30:29.776Z,80.38
2019-02-11T17:33:01.479Z,80.41
2019-02-11T17:35:33.180Z,80.26
2019-02-11T17:38:04.883Z,80.49
2019-02-11T17:40:36.680Z,80.70
2019-02-11T17:43:09.483Z,81.10
2019-02-11T17:45:41.198Z,81.28
2019-02-11T17:48:12.984Z,81.70
2019-02-11T17:50:44.689Z,80.98
2019-02-11T17:53:16.706Z,81.07
2019-02-11T17:55:48.473Z,81.05
2019-02-11T17:58:20.258Z,81.92
2019-02-11T18:00:56.148Z,81.24
2019-02-11T18:03:27.861Z,81.70
2019-02-11T18:06:00.412Z,81.63
2019-02-11T18:08:32.202Z,81.82
2019-02-11T18:11:04.212Z,82.37
2019-02-11T18:13:35.991Z,81.85
2019-02-11T18:16:07.755Z,81.79
2019-02-11T18:18:39.542Z,81.59
2019-02-11T18:21:11.255Z,81.93
2019-02-11T18:23:42.961Z,81.79
2019-02-11T18:26:15.631Z,81.91
2019-02-11T18:28:47.589Z,81.78
2019-02-11T18:31:19.695Z,81.96
2019-02-11T18:33:51.469Z,82.03
2019-02-11T18:36:23.428Z,81.69
2019-02-11T18:38:55.281Z,81.79
2019-02-11T18:41:26.981Z,81.71
2019-02-11T18:43:58.771Z,82.14
2019-02-11T18:46:30.470Z,82.07
2019-02-11T18:49:02.178Z,81.93
2019-02-11T18:51:33.886Z,82.14
2019-02-11T18:54:05.597Z,82.50
2019-02-11T18:56:37.366Z,82.70
2019-02-11T18:59:09.412Z,82.74
2019-02-11T19:01:41.118Z,82.78
2019-02-11T19:04:13.016Z,82.64
2019-02-11T19:06:44.802Z,82.75
2019-02-11T19:09:18.656Z,83.01
2019-02-11T19:11:50.403Z,83.16
2019-02-11T19:14:22.129Z,83.78
2019-02-11T19:16:53.858Z,83.96
2019-02-11T19:19:25.666Z,84.12
2019-02-11T19:21:57.630Z,84.49
2019-02-11T19:24:29.357Z,84.92
2019-02-11T19:27:01.434Z,85.38
2019-02-11T19:29:33.159Z,85.82
2019-02-11T19:32:04.869Z,85.98
2019-02-11T19:34:36.670Z,86.55
2019-02-11T19:37:09.647Z,86.46
2019-02-11T19:39:41.361Z,86.78
2019-02-11T19:42:13.772Z,87.08
2019-02-11T19:44:45.509Z,87.62
2019-02-11T19:47:17.312Z,87.61
2019-02-11T19:49:51.748Z,87.34
2019-02-11T19:52:22.458Z,87.24
2019-02-11T19:54:54.242Z,87.99
2019-02-11T19:57:25.955Z,87.72
2019-02-11T19:59:57.702Z,87.90
2019-02-11T20:02:30.334Z,88.01
2019-02-11T20:05:02.259Z,87.92
2019-02-11T20:07:34.033Z,88.04
2019-02-11T20:10:07.438Z,88.15
2019-02-11T20:12:39.264Z,88.11
2019-02-11T20:15:14.540Z,88.34
2019-02-11T20:17:46.327Z,88.12
2019-02-11T20:20:20.608Z,87.77
2019-02-11T20:22:52.889Z,90.91
2019-02-11T20:25:24.628Z,91.64
2019-02-11T20:27:56.629Z,91.90
2019-02-11T20:30:35.903Z,91.20
2019-02-11T20:33:07.863Z,89.46
2019-02-11T20:35:48.112Z,89.73
2019-02-11T20:38:19.836Z,90.55
2019-02-11T20:40:51.567Z,92.00
2019-02-11T20:43:23.897Z,93.76
2019-02-11T20:45:55.607Z,94.75
2019-02-11T20:48:27.409Z,94.96
2019-02-11T20:50:59.161Z,93.74
2019-02-11T20:53:30.950Z,91.52
2019-02-11T20:56:02.665Z,91.41
2019-02-11T20:58:34.554Z,91.38
2019-02-11T21:01:06.288Z,90.71
2019-02-11T21:03:38.002Z,90.26
2019-02-11T21:06:10.218Z,90.37
2019-02-11T21:08:42.248Z,90.32
2019-02-11T21:11:14.024Z,89.95
2019-02-11T21:13:45.728Z,89.41
2019-02-11T21:16:17.459Z,89.97
2019-02-11T21:18:49.188Z,90.01
2019-02-11T21:21:20.926Z,88.84
2019-02-11T21:23:52.662Z,88.57
2019-02-11T21:26:24.429Z,89.36
2019-02-11T21:28:56.122Z,88.82
2019-02-11T21:31:27.849Z,90.12
2019-02-11T21:34:00.623Z,90.42
2019-02-11T21:36:32.358Z,90.26
2019-02-11T21:39:05.010Z,89.92
2019-02-11T21:41:36.805Z,90.45
2019-02-11T21:44:09.764Z,90.43
2019-02-11T21:46:41.573Z,91.17
2019-02-11T21:49:13.682Z,90.90
2019-02-11T21:51:45.419Z,90.80
2019-02-11T21:54:17.151Z,90.57
2019-02-11T21:56:49.148Z,90.76
2019-02-11T21:59:20.873Z,90.13
2019-02-11T22:01:52.604Z,88.66
2019-02-11T22:04:25.032Z,88.25
2019-02-11T22:09:34.136Z,88.69
2019-02-11T22:12:06.025Z,89.47
2019-02-11T22:14:37.735Z,90.06
2019-02-11T22:17:09.462Z,88.87
2019-02-11T22:19:41.189Z,88.50
2019-02-11T22:22:12.931Z,89.40
2019-02-11T22:24:44.650Z,88.45
2019-02-11T22:27:16.381Z,88.74
2019-02-11T22:29:48.152Z,89.47
2019-02-11T22:32:20.084Z,88.32
2019-02-11T22:34:51.780Z,88.05
2019-02-11T22:37:23.507Z,88.84
2019-02-11T22:39:55.464Z,88.47
2019-02-11T22:42:27.680Z,88.45
2019-02-11T22:44:59.390Z,88.87
2019-02-11T22:47:31.120Z,89.16
2019-02-11T22:50:02.821Z,89.19
2019-02-11T22:52:34.533Z,90.42
2019-02-11T22:55:07.334Z,90.26
2019-02-11T22:57:39.148Z,89.02
2019-02-11T23:00:47.139Z,88.94
2019-02-11T23:03:19.000Z,89.63
2019-02-11T23:05:50.807Z,89.32
2019-02-11T23:08:23.662Z,89.22
2019-02-11T23:10:55.436Z,89.70
2019-02-11T23:13:27.300Z,89.83
2019-02-11T23:15:59.143Z,89.24
2019-02-11T23:18:31.830Z,89.27
2019-02-11T23:21:03.668Z,89.24
2019-02-11T23:23:35.455Z,89.34
2019-02-11T23:26:07.166Z,89.78
2019-02-11T23:28:38.885Z,89.66
2019-02-11T23:31:10.596Z,89.76
2019-02-11T23:33:42.308Z,89.82
2019-02-11T23:36:14.106Z,90.10
2019-02-11T23:38:45.819Z,90.20
2019-02-11T23:41:17.782Z,90.31
2019-02-11T23:43:49.558Z,90.34
2019-02-11T23:46:21.352Z,89.97
2019-02-11T23:48:53.067Z,89.90
2019-02-11T23:51:24.771Z,90.29
2019-02-11T23:53:56.729Z,90.17
2019-02-11T23:56:28.446Z,90.23
2019-02-11T23:59:00.186Z,89.94
